Time;durP1;ratioP1;P1;durP2;ratioP2;P2;SDS_P1;SDS_P2;PMS_P1;PMS_P2;Temp;Humidity;BMP_temperature;BMP_pressure;BME280_temperature;BME280_humidity;BME280_pressure;Samples;Min_cycle;Max_cycle;Signal;HPM_P1;HPM_P2
2022/05/07 00:00:55;;;;;;;10.45;7.68;;;;;;;;;;5002615;28;20034;-79
2022/05/07 00:03:20;;;;;;;8.93;6.70;;;;;;;;;;5020834;28;20547;-80
2022/05/07 00:05:46;;;;;;;9.50;7.13;;;;;;;;;;5019801;28;20074;-80
2022/05/07 00:08:11;;;;;;;9.02;7.18;;;;;;;;;;4986476;28;20065;-80
2022/05/07 00:10:37;;;;;;;10.63;7.00;;;;;;;;;;4970276;28;20037;-80
2022/05/07 00:13:04;;;;;;;8.35;7.05;;;;;;;;;;5020425;28;20510;-80
2022/05/07 00:15:30;;;;;;;8.32;6.85;;;;;;;;;;5019560;28;20057;-80
2022/05/07 00:18:03;;;;;;;9.55;7.30;;;;;;;;;;5019566;28;20030;-80
2022/05/07 00:20:29;;;;;;;10.52;7.82;;;;;;;;;;4988052;28;20042;-80
2022/05/07 00:22:55;;;;;;;9.98;7.25;;;;;;;;;;5002013;28;20029;-80
2022/05/07 00:25:20;;;;;;;8.13;7.00;;;;;;;;;;5019151;28;20038;-80
2022/05/07 00:27:46;;;;;;;10.13;7.25;;;;;;;;;;5020833;28;20124;-81
2022/05/07 00:30:11;;;;;;;11.40;7.65;;;;;;;;;;5020074;28;20486;-80
2022/05/07 00:32:38;;;;;;;10.63;7.72;;;;;;;;;;5018471;28;20113;-80
2022/05/07 00:35:03;;;;;;;10.90;7.60;;;;;;;;;;5019913;28;20508;-80
2022/05/07 00:37:29;;;;;;;9.57;7.70;;;;;;;;;;5020047;28;20502;-80
2022/05/07 00:39:54;;;;;;;9.50;7.50;;;;;;;;;;4986587;28;20517;-79
2022/05/07 00:42:20;;;;;;;9.77;7.68;;;;;;;;;;4986168;28;20026;-80
2022/05/07 00:44:46;;;;;;;10.15;7.82;;;;;;;;;;5002514;28;20490;-80
2022/05/07 00:47:11;;;;;;;10.45;7.35;;;;;;;;;;5001996;28;20084;-80
2022/05/07 00:49:37;;;;;;;10.60;7.82;;;;;;;;;;5001346;28;20426;-80
2022/05/07 00:52:02;;;;;;;11.30;7.93;;;;;;;;;;4985567;28;20029;-80
2022/05/07 00:54:28;;;;;;;10.48;7.90;;;;;;;;;;4953617;28;20160;-80
2022/05/07 00:56:53;;;;;;;10.65;7.47;;;;;;;;;;5001621;28;20096;-79
2022/05/07 00:59:19;;;;;;;14.43;9.05;;;;;;;;;;5019175;28;20041;-80
2022/05/07 01:01:44;;;;;;;12.75;8.77;;;;;;;;;;4985377;28;20037;-80
2022/05/07 01:04:10;;;;;;;16.10;9.60;;;;;;;;;;5001955;28;20044;-80
2022/05/07 01:06:37;;;;;;;16.30;10.32;;;;;;;;;;5019416;28;20073;-80
2022/05/07 01:09:07;;;;;;;15.68;10.38;;;;;;;;;;4970986;28;20030;-80
2022/05/07 01:11:33;;;;;;;16.60;10.88;;;;;;;;;;4986088;28;20030;-80
2022/05/07 01:13:59;;;;;;;16.13;10.45;;;;;;;;;;4985290;28;20406;-80
2022/05/07 01:16:28;;;;;;;15.35;10.00;;;;;;;;;;5001332;28;20053;-80
2022/05/07 01:18:53;;;;;;;16.08;10.50;;;;;;;;;;5002115;28;20395;-80
2022/05/07 01:21:19;;;;;;;17.63;11.07;;;;;;;;;;4985614;28;20121;-80
2022/05/07 01:23:48;;;;;;;17.38;10.90;;;;;;;;;;4985651;28;20034;-80
2022/05/07 01:26:13;;;;;;;16.92;11.18;;;;;;;;;;5000690;28;20084;-80
2022/05/07 01:28:40;;;;;;;14.77;10.23;;;;;;;;;;5001362;28;20033;-80
2022/05/07 01:31:08;;;;;;;15.45;10.07;;;;;;;;;;5001548;28;20117;-80
2022/05/07 01:33:34;;;;;;;18.38;12.05;;;;;;;;;;5001470;28;20054;-80
2022/05/07 01:36:02;;;;;;;15.52;10.45;;;;;;;;;;4969332;28;20026;-80
2022/05/07 01:38:31;;;;;;;15.65;10.63;;;;;;;;;;4970022;28;20395;-80
2022/05/07 01:40:58;;;;;;;17.42;10.98;;;;;;;;;;5001576;28;20044;-80
2022/05/07 01:43:26;;;;;;;16.67;11.57;;;;;;;;;;4985563;28;20490;-81
2022/05/07 01:45:55;;;;;;;16.08;10.88;;;;;;;;;;4985166;28;20048;-80
2022/05/07 01:48:21;;;;;;;16.27;10.32;;;;;;;;;;5001769;28;20071;-80
2022/05/07 01:50:52;;;;;;;17.58;10.90;;;;;;;;;;4970547;28;20080;-79
2022/05/07 01:53:23;;;;;;;17.38;10.63;;;;;;;;;;4986117;28;20037;-80
2022/05/07 01:55:50;;;;;;;16.70;10.57;;;;;;;;;;5000473;28;20029;-79
2022/05/07 01:58:18;;;;;;;16.90;10.05;;;;;;;;;;5018520;28;20033;-80
2022/05/07 02:00:43;;;;;;;14.60;10.45;;;;;;;;;;5001127;28;20038;-80
2022/05/07 02:03:10;;;;;;;16.02;10.57;;;;;;;;;;4952541;28;20033;-80
2022/05/07 02:05:36;;;;;;;16.90;10.55;;;;;;;;;;5001619;28;20038;-80
2022/05/07 02:08:02;;;;;;;17.20;10.32;;;;;;;;;;4984330;28;20038;-80
2022/05/07 02:10:27;;;;;;;15.35;10.20;;;;;;;;;;4984863;28;20064;-80
2022/05/07 02:12:54;;;;;;;14.88;9.95;;;;;;;;;;5001064;28;20499;-79
2022/05/07 02:15:21;;;;;;;17.67;10.88;;;;;;;;;;4984097;28;20029;-80
2022/05/07 02:17:51;;;;;;;17.02;10.82;;;;;;;;;;4986075;28;20045;-80
2022/05/07 02:20:16;;;;;;;14.30;9.82;;;;;;;;;;5001110;28;20029;-80
2022/05/07 02:22:44;;;;;;;14.95;9.75;;;;;;;;;;5001197;28;20030;-80
2022/05/07 02:25:10;;;;;;;16.50;10.50;;;;;;;;;;4984534;28;20044;-80
2022/05/07 02:27:35;;;;;;;15.82;10.82;;;;;;;;;;5001007;28;20565;-80
2022/05/07 02:30:03;;;;;;;20.42;11.50;;;;;;;;;;5000628;28;20108;-80
2022/05/07 02:32:29;;;;;;;14.45;10.02;;;;;;;;;;4984684;28;20030;-79
2022/05/07 02:34:55;;;;;;;17.88;10.68;;;;;;;;;;4984232;28;20072;-80
2022/05/07 02:37:27;;;;;;;16.60;11.00;;;;;;;;;;5000254;28;20036;-79
2022/05/07 02:39:54;;;;;;;18.15;12.07;;;;;;;;;;5000829;28;20520;-80
2022/05/07 02:42:39;;;;;;;18.60;11.88;;;;;;;;;;5000762;28;20038;-80
2022/05/07 02:45:23;;;;;;;16.67;10.63;;;;;;;;;;5000009;28;20313;-80
2022/05/07 02:47:52;;;;;;;16.70;11.27;;;;;;;;;;4984874;28;20034;-80
2022/05/07 02:50:20;;;;;;;16.05;11.50;;;;;;;;;;5000715;28;20057;-80
2022/05/07 02:52:46;;;;;;;16.80;11.15;;;;;;;;;;4984370;28;20568;-80
2022/05/07 02:55:11;;;;;;;17.13;11.68;;;;;;;;;;5000545;28;20061;-80
2022/05/07 02:57:39;;;;;;;20.38;12.32;;;;;;;;;;4953281;28;20038;-80
2022/05/07 03:00:05;;;;;;;19.88;12.00;;;;;;;;;;4984548;28;20041;-80
2022/05/07 03:02:34;;;;;;;17.15;12.02;;;;;;;;;;5000971;28;20489;-80
2022/05/07 03:04:59;;;;;;;17.20;11.32;;;;;;;;;;4968317;28;20073;-80
2022/05/07 03:07:25;;;;;;;17.45;11.57;;;;;;;;;;4984240;28;20034;-80
2022/05/07 03:09:53;;;;;;;16.92;12.10;;;;;;;;;;4984875;28;20042;-80
2022/05/07 03:12:19;;;;;;;16.52;10.90;;;;;;;;;;5017801;28;20037;-80
2022/05/07 03:14:46;;;;;;;19.00;11.63;;;;;;;;;;4999570;28;20030;-80
2022/05/07 03:17:11;;;;;;;18.08;11.23;;;;;;;;;;5000217;28;20022;-80
2022/05/07 03:19:37;;;;;;;18.88;11.43;;;;;;;;;;4967257;28;20038;-80
2022/05/07 03:22:02;;;;;;;15.77;10.07;;;;;;;;;;4999555;28;20123;-80
2022/05/07 03:24:30;;;;;;;14.82;9.82;;;;;;;;;;4983957;28;20038;-81
2022/05/07 03:27:00;;;;;;;17.95;10.50;;;;;;;;;;4999126;28;20038;-80
2022/05/07 03:29:25;;;;;;;14.10;9.85;;;;;;;;;;4999863;28;20029;-80
2022/05/07 03:32:01;;;;;;;16.58;10.05;;;;;;;;;;4985392;28;20030;-80
2022/05/07 03:34:26;;;;;;;19.50;10.88;;;;;;;;;;4999280;28;20050;-80
2022/05/07 03:36:52;;;;;;;16.58;10.75;;;;;;;;;;4999734;28;20516;-79
2022/05/07 03:39:17;;;;;;;16.92;10.95;;;;;;;;;;4983995;28;20037;-79
2022/05/07 03:41:43;;;;;;;17.45;11.52;;;;;;;;;;4983387;28;20038;-80
2022/05/07 03:44:10;;;;;;;18.58;11.98;;;;;;;;;;4999432;28;20057;-80
2022/05/07 03:46:36;;;;;;;21.63;12.75;;;;;;;;;;4999796;28;20030;-80
2022/05/07 03:49:03;;;;;;;18.95;12.15;;;;;;;;;;4968050;28;20463;-80
2022/05/07 03:53:29;;;;;;;18.58;11.60;;;;;;;;;;4999323;28;20030;-80
2022/05/07 03:54:16;;;;;;;21.45;14.73;;;;;;;;;;4999115;28;20445;-80
2022/05/07 03:56:45;;;;;;;20.08;12.70;;;;;;;;;;4999658;28;20026;-80
2022/05/07 03:59:11;;;;;;;18.15;11.68;;;;;;;;;;4999733;28;20034;-80
2022/05/07 04:01:45;;;;;;;18.42;11.02;;;;;;;;;;4999589;28;20030;-80
2022/05/07 04:04:11;;;;;;;20.30;12.02;;;;;;;;;;4983228;28;20124;-79
2022/05/07 04:06:38;;;;;;;21.40;12.85;;;;;;;;;;4999476;28;20030;-80
2022/05/07 04:09:03;;;;;;;21.38;12.35;;;;;;;;;;5017457;28;20022;-80
2022/05/07 04:11:29;;;;;;;19.50;11.68;;;;;;;;;;5000205;28;20045;-80
2022/05/07 04:13:58;;;;;;;20.90;12.38;;;;;;;;;;4983773;28;20406;-79
2022/05/07 04:16:24;;;;;;;21.40;12.80;;;;;;;;;;4999228;28;20048;-80
2022/05/07 04:19:11;;;;;;;21.75;13.38;;;;;;;;;;4985979;28;20539;-80
2022/05/07 04:21:38;;;;;;;20.42;12.75;;;;;;;;;;5017001;28;20032;-80
2022/05/07 04:24:13;;;;;;;21.63;13.25;;;;;;;;;;4954740;28;20026;-80
2022/05/07 04:26:40;;;;;;;21.60;12.80;;;;;;;;;;5019935;28;20030;-80
2022/05/07 04:29:05;;;;;;;25.17;13.27;;;;;;;;;;5003574;28;20041;-80
2022/05/07 04:31:32;;;;;;;20.25;12.30;;;;;;;;;;5002526;28;20167;-80
2022/05/07 04:34:02;;;;;;;21.35;13.13;;;;;;;;;;5002953;28;20034;-80
2022/05/07 04:36:31;;;;;;;20.83;12.25;;;;;;;;;;4987482;28;20030;-80
2022/05/07 04:39:02;;;;;;;20.42;11.77;;;;;;;;;;4987658;28;20045;-80
2022/05/07 04:41:32;;;;;;;21.13;12.13;;;;;;;;;;4986903;28;20034;-80
2022/05/07 04:43:58;;;;;;;20.95;12.25;;;;;;;;;;5002600;28;20128;-79
2022/05/07 04:46:24;;;;;;;17.00;11.43;;;;;;;;;;5001109;23;20041;-85
2022/05/07 04:49:00;;;;;;;20.05;12.50;;;;;;;;;;4951375;28;20042;-86
2022/05/07 04:51:25;;;;;;;17.50;11.50;;;;;;;;;;4966580;28;20044;-87
2022/05/07 04:54:01;;;;;;;18.35;11.55;;;;;;;;;;4973585;28;20034;-84
2022/05/07 04:56:28;;;;;;;17.90;11.95;;;;;;;;;;5000185;28;20042;-85
2022/05/07 04:58:59;;;;;;;19.23;11.95;;;;;;;;;;4968969;28;20114;-85
2022/05/07 05:01:33;;;;;;;;;;;;;;;;;;4985382;28;20039;-85
2022/05/07 05:04:01;;;;;;;18.35;11.45;;;;;;;;;;4983158;28;19914;-87
2022/05/07 05:06:30;;;;;;;22.23;11.85;;;;;;;;;;4971894;28;20402;-85
2022/05/07 05:09:00;;;;;;;18.90;11.38;;;;;;;;;;4981299;28;20414;-85
2022/05/07 05:11:26;;;;;;;17.73;11.20;;;;;;;;;;4948955;28;20026;-85
2022/05/07 05:13:52;;;;;;;17.48;11.10;;;;;;;;;;4964720;28;20513;-85
2022/05/07 05:16:18;;;;;;;16.77;10.95;;;;;;;;;;4964534;28;20026;-84
2022/05/07 05:18:47;;;;;;;18.63;11.57;;;;;;;;;;4981245;28;20125;-84
2022/05/07 05:21:16;;;;;;;18.10;11.13;;;;;;;;;;4980546;28;20050;-86
2022/05/07 05:23:57;;;;;;;19.40;11.48;;;;;;;;;;4980710;28;20106;-82
2022/05/07 05:26:23;;;;;;;18.02;11.10;;;;;;;;;;4948065;28;20073;-84
2022/05/07 05:28:53;;;;;;;15.10;9.48;;;;;;;;;;4964530;28;20030;-86
2022/05/07 05:31:20;;;;;;;16.45;10.00;;;;;;;;;;4980331;28;20037;-84
2022/05/07 05:33:52;;;;;;;15.50;10.30;;;;;;;;;;4963578;28;20491;-83
2022/05/07 05:36:28;;;;;;;18.23;10.70;;;;;;;;;;4964943;28;20427;-85
2022/05/07 05:38:54;;;;;;;18.27;10.50;;;;;;;;;;4984631;28;20080;-85
2022/05/07 05:41:24;;;;;;;14.70;9.57;;;;;;;;;;4964801;28;20411;-84
2022/05/07 05:43:50;;;;;;;16.00;9.93;;;;;;;;;;4963594;28;20402;-85
2022/05/07 05:46:17;;;;;;;15.65;9.52;;;;;;;;;;4979396;28;20033;-86
2022/05/07 05:48:44;;;;;;;12.73;9.43;;;;;;;;;;4979978;28;20144;-84
2022/05/07 05:51:10;;;;;;;12.65;9.13;;;;;;;;;;4979631;28;20467;-85
2022/05/07 05:53:40;;;;;;;15.55;9.90;;;;;;;;;;4979594;28;20045;-86
2022/05/07 05:56:06;;;;;;;18.48;10.82;;;;;;;;;;4963083;28;20034;-86
2022/05/07 05:58:38;;;;;;;19.05;11.63;;;;;;;;;;4980415;28;20034;-87
2022/05/07 06:01:06;;;;;;;15.45;9.93;;;;;;;;;;4980688;28;20034;-87
2022/05/07 06:03:34;;;;;;;15.32;9.63;;;;;;;;;;4986030;28;20069;-85
2022/05/07 06:06:00;;;;;;;14.88;9.23;;;;;;;;;;4979151;28;20403;-86
2022/05/07 06:08:25;;;;;;;22.23;10.20;;;;;;;;;;4963189;28;20096;-86
2022/05/07 06:10:52;;;;;;;17.58;10.25;;;;;;;;;;4979995;28;20049;-85
2022/05/07 06:13:19;;;;;;;15.32;10.05;;;;;;;;;;4980563;28;20030;-88
2022/05/07 06:15:51;;;;;;;14.75;9.60;;;;;;;;;;4979280;28;20461;-87
2022/05/07 06:18:21;;;;;;;17.92;10.40;;;;;;;;;;4978381;28;20066;-86
2022/05/07 06:20:51;;;;;;;;;;;;;;;;;;4962191;28;20035;-87
2022/05/07 06:23:17;;;;;;;15.80;9.77;;;;;;;;;;4944969;28;19975;-88
2022/05/07 06:28:27;;;;;;;15.98;10.25;;;;;;;;;;4960521;28;20517;-87
2022/05/07 06:30:53;;;;;;;16.08;10.77;;;;;;;;;;4958411;28;20110;-84
2022/05/07 06:33:23;;;;;;;18.45;11.15;;;;;;;;;;4942837;28;20039;-89
2022/05/07 06:35:52;;;;;;;15.85;10.30;;;;;;;;;;4958514;28;20038;-85
2022/05/07 06:38:23;;;;;;;14.50;9.23;;;;;;;;;;4944419;28;20197;-88
2022/05/07 06:40:50;;;;;;;16.98;9.20;;;;;;;;;;4943933;28;20170;-88
2022/05/07 06:43:16;;;;;;;12.90;8.52;;;;;;;;;;4942753;28;20039;-87
2022/05/07 06:45:52;;;;;;;12.95;9.25;;;;;;;;;;4928843;28;20023;-87
2022/05/07 06:48:18;;;;;;;11.57;8.73;;;;;;;;;;4942096;28;20045;-86
2022/05/07 06:50:46;;;;;;;13.43;7.82;;;;;;;;;;4959729;28;20031;-85
2022/05/07 06:53:13;;;;;;;12.10;8.07;;;;;;;;;;4943068;28;20039;-84
2022/05/07 06:58:24;;;;;;;11.32;7.07;;;;;;;;;;4962128;28;20035;-85
2022/05/07 07:00:50;;;;;;;9.77;6.25;;;;;;;;;;4962898;28;20082;-85
2022/05/07 07:03:16;;;;;;;8.88;6.75;;;;;;;;;;4959278;28;20039;-84
2022/05/07 07:05:42;;;;;;;10.00;7.10;;;;;;;;;;4942425;28;20034;-85
2022/05/07 07:08:08;;;;;;;10.15;6.82;;;;;;;;;;4943729;28;20121;-84
2022/05/07 07:10:33;;;;;;;8.98;6.65;;;;;;;;;;4958920;28;20070;-85
2022/05/07 07:12:59;;;;;;;10.02;6.93;;;;;;;;;;4976215;28;20054;-83
2022/05/07 07:15:25;;;;;;;8.55;6.35;;;;;;;;;;4976107;28;20563;-86
2022/05/07 07:17:50;;;;;;;8.68;6.47;;;;;;;;;;4976831;28;20038;-84
2022/05/07 07:20:16;;;;;;;9.65;6.38;;;;;;;;;;4960112;28;20035;-84
2022/05/07 07:22:41;;;;;;;9.18;6.53;;;;;;;;;;4943800;28;20042;-85
2022/05/07 07:25:07;;;;;;;8.15;6.20;;;;;;;;;;4976868;28;20503;-84
2022/05/07 07:27:34;;;;;;;8.65;6.18;;;;;;;;;;4943195;28;20515;-85
2022/05/07 07:29:59;;;;;;;7.50;6.10;;;;;;;;;;4957322;28;20113;-84
2022/05/07 07:32:27;;;;;;;7.22;5.70;;;;;;;;;;4975134;28;20039;-88
2022/05/07 07:34:52;;;;;;;7.80;6.35;;;;;;;;;;4942619;28;20039;-84
2022/05/07 07:37:18;;;;;;;9.20;6.38;;;;;;;;;;4959428;28;20041;-84
2022/05/07 07:39:44;;;;;;;13.43;9.50;;;;;;;;;;4943012;28;20042;-88
2022/05/07 07:42:10;;;;;;;14.23;7.88;;;;;;;;;;4943318;28;20398;-84
2022/05/07 07:44:36;;;;;;;10.98;7.57;;;;;;;;;;4960043;28;20077;-85
2022/05/07 07:49:45;;;;;;;7.85;5.88;;;;;;;;;;4976064;28;20038;-86
2022/05/07 07:52:12;;;;;;;8.32;6.25;;;;;;;;;;4958969;28;20031;-87
2022/05/07 07:54:38;;;;;;;9.02;7.35;;;;;;;;;;4959310;28;20022;-87
2022/05/07 07:57:04;;;;;;;17.20;10.32;;;;;;;;;;4960583;28;20061;-84
2022/05/07 07:59:30;;;;;;;19.30;12.00;;;;;;;;;;4957114;28;20026;-86
2022/05/07 08:01:56;;;;;;;23.10;14.23;;;;;;;;;;4960582;28;20439;-85
2022/05/07 08:04:25;;;;;;;14.57;10.20;;;;;;;;;;4945351;28;20038;-85
2022/05/07 08:11:40;;;;;;;10.55;7.55;;;;;;;;;;4961067;28;20030;-85
2022/05/07 08:12:20;;;;;;;27.52;16.38;;;;;;;;;;4949254;28;20453;-80
2022/05/07 08:14:46;;;;;;;10.90;7.95;;;;;;;;;;4928358;28;20043;-82
2022/05/07 08:17:11;;;;;;;7.38;5.47;;;;;;;;;;4960529;28;20432;-84
2022/05/07 08:19:37;;;;;;;7.30;5.57;;;;;;;;;;4960505;28;20468;-84
2022/05/07 08:22:02;;;;;;;8.23;5.70;;;;;;;;;;4945064;28;20113;-83
2022/05/07 08:24:28;;;;;;;7.35;5.82;;;;;;;;;;4944520;28;20026;-84
2022/05/07 08:26:54;;;;;;;6.45;5.20;;;;;;;;;;4977895;28;20034;-84
2022/05/07 08:29:21;;;;;;;5.95;4.70;;;;;;;;;;4977980;28;20030;-86
2022/05/07 08:31:48;;;;;;;5.97;4.90;;;;;;;;;;4960704;28;20062;-83
2022/05/07 08:34:13;;;;;;;22.27;6.10;;;;;;;;;;4977720;28;20054;-87
2022/05/07 08:36:38;;;;;;;11.27;6.03;;;;;;;;;;4944697;28;20090;-85
2022/05/07 08:39:04;;;;;;;7.25;4.90;;;;;;;;;;4978506;28;20510;-85
2022/05/07 08:41:29;;;;;;;8.52;5.30;;;;;;;;;;4960836;28;20114;-87
2022/05/07 08:43:55;;;;;;;8.57;4.20;;;;;;;;;;4960763;28;20035;-82
2022/05/07 08:46:20;;;;;;;18.15;4.70;;;;;;;;;;4978901;28;20039;-87
2022/05/07 08:48:46;;;;;;;10.43;5.78;;;;;;;;;;4978388;28;20049;-85
2022/05/07 08:51:16;;;;;;;33.55;21.13;;;;;;;;;;4961760;28;20043;-83
2022/05/07 08:53:48;;;;;;;18.90;12.30;;;;;;;;;;4979213;28;20034;-83
2022/05/07 08:56:14;;;;;;;61.60;37.25;;;;;;;;;;4963533;28;20030;-84
2022/05/07 08:58:45;;;;;;;19.75;13.30;;;;;;;;;;4944445;28;20038;-85
2022/05/07 09:01:11;;;;;;;10.07;7.55;;;;;;;;;;4960684;28;20086;-83
2022/05/07 09:03:38;;;;;;;6.63;4.85;;;;;;;;;;4960157;28;20030;-81
2022/05/07 09:06:16;;;;;;;10.23;7.32;;;;;;;;;;4959562;28;20058;-86
2022/05/07 09:08:42;;;;;;;10.35;8.77;;;;;;;;;;4959481;28;20074;-84
2022/05/07 09:11:07;;;;;;;6.60;5.07;;;;;;;;;;4943042;28;20046;-85
2022/05/07 09:13:36;;;;;;;16.52;12.45;;;;;;;;;;4959479;28;20054;-86
2022/05/07 09:16:02;;;;;;;5.75;4.75;;;;;;;;;;4958697;28;20031;-86
2022/05/07 09:18:31;;;;;;;8.23;5.28;;;;;;;;;;4959237;28;20039;-84
2022/05/07 09:21:16;;;;;;;6.65;4.55;;;;;;;;;;4958306;28;20135;-84
2022/05/07 09:23:56;;;;;;;6.15;4.65;;;;;;;;;;4975431;28;20063;-86
2022/05/07 09:26:31;;;;;;;7.97;4.90;;;;;;;;;;4964790;28;20042;-86
2022/05/07 09:28:56;;;;;;;5.10;4.13;;;;;;;;;;4978274;28;20038;-85
2022/05/07 09:31:25;;;;;;;6.35;4.82;;;;;;;;;;4978095;28;20029;-86
2022/05/07 09:33:51;;;;;;;5.10;4.60;;;;;;;;;;4960245;28;20031;-86
2022/05/07 09:36:16;;;;;;;5.75;4.40;;;;;;;;;;4960623;28;20611;-85
2022/05/07 09:38:42;;;;;;;6.70;4.30;;;;;;;;;;4978157;28;20038;-85
2022/05/07 09:41:18;;;;;;;7.50;5.60;;;;;;;;;;4960624;28;20046;-86
2022/05/07 09:43:44;;;;;;;6.50;4.78;;;;;;;;;;4944561;28;20541;-86
2022/05/07 09:46:09;;;;;;;8.35;5.68;;;;;;;;;;4961022;28;20400;-85
2022/05/07 09:48:36;;;;;;;10.38;5.60;;;;;;;;;;4952519;28;20030;-85
2022/05/07 09:51:02;;;;;;;6.60;5.25;;;;;;;;;;4981320;28;20042;-85
2022/05/07 09:58:59;;;;;;;9.82;5.85;;;;;;;;;;4952446;28;20119;-86
2022/05/07 10:01:44;;;;;;;7.18;5.25;;;;;;;;;;4947545;28;20054;-84
2022/05/07 10:04:15;;;;;;;8.38;5.47;;;;;;;;;;4947958;28;20049;-85
2022/05/07 10:06:49;;;;;;;8.38;5.25;;;;;;;;;;4961999;28;20048;-83
2022/05/07 10:09:24;;;;;;;7.93;5.50;;;;;;;;;;4961898;28;20483;-84
2022/05/07 10:11:54;;;;;;;7.45;5.65;;;;;;;;;;4961799;28;20039;-85
2022/05/07 10:14:26;;;;;;;6.68;5.30;;;;;;;;;;4945534;28;20084;-86
2022/05/07 10:17:04;;;;;;;9.60;5.60;;;;;;;;;;4928910;28;20121;-87
2022/05/07 10:19:39;;;;;;;9.15;6.57;;;;;;;;;;4977214;28;20095;-87
2022/05/07 10:22:26;;;;;;;9.30;6.90;;;;;;;;;;4961317;28;20130;-87
2022/05/07 10:25:06;;;;;;;8.65;6.45;;;;;;;;;;4960817;28;20031;-86
2022/05/07 10:27:42;;;;;;;8.48;6.55;;;;;;;;;;4958098;28;20066;-85
2022/05/07 10:30:12;;;;;;;11.45;7.00;;;;;;;;;;4926119;28;20038;-85
2022/05/07 10:32:43;;;;;;;9.55;7.25;;;;;;;;;;4941648;28;20034;-87
2022/05/07 10:35:09;;;;;;;9.13;7.18;;;;;;;;;;4958971;28;20038;-87
2022/05/07 10:37:42;;;;;;;10.60;8.48;;;;;;;;;;4953257;28;20496;-88
2022/05/07 10:40:11;;;;;;;11.38;8.20;;;;;;;;;;4944853;28;20090;-87
2022/05/07 10:42:40;;;;;;;13.85;9.82;;;;;;;;;;4959847;28;20069;-88
2022/05/07 10:45:29;;;;;;;14.15;10.13;;;;;;;;;;4944162;28;20118;-87
2022/05/07 10:47:55;;;;;;;17.58;12.35;;;;;;;;;;4994054;23;20121;-83
2022/05/07 10:50:21;;;;;;;17.52;12.32;;;;;;;;;;4978441;28;20439;-82
2022/05/07 10:52:53;;;;;;;15.82;10.38;;;;;;;;;;4994434;28;20085;-85
2022/05/07 10:55:26;;;;;;;10.80;6.85;;;;;;;;;;4978760;28;20031;-82
2022/05/07 10:57:52;;;;;;;17.92;12.07;;;;;;;;;;4980714;28;20070;-82
2022/05/07 11:00:21;;;;;;;15.57;12.30;;;;;;;;;;4998217;28;20030;-82
2022/05/07 11:02:48;;;;;;;13.70;11.00;;;;;;;;;;4981542;28;20031;-82
2022/05/07 11:05:15;;;;;;;13.63;10.45;;;;;;;;;;4981551;28;20098;-82
2022/05/07 11:07:40;;;;;;;14.13;10.65;;;;;;;;;;4998265;28;20058;-82
2022/05/07 11:10:07;;;;;;;13.00;10.15;;;;;;;;;;4977505;28;20035;-82
2022/05/07 11:12:35;;;;;;;14.48;9.75;;;;;;;;;;4997952;28;20097;-81
2022/05/07 11:15:04;;;;;;;13.02;9.55;;;;;;;;;;4997950;28;20066;-79
2022/05/07 11:17:31;;;;;;;12.10;9.20;;;;;;;;;;4997978;28;20026;-81
2022/05/07 11:19:57;;;;;;;12.68;9.60;;;;;;;;;;4998409;28;20043;-80
2022/05/07 11:22:29;;;;;;;11.15;8.80;;;;;;;;;;4982351;28;20022;-81
2022/05/07 11:24:56;;;;;;;11.52;9.38;;;;;;;;;;4983272;28;20103;-81
2022/05/07 11:27:26;;;;;;;13.63;11.40;;;;;;;;;;4997627;28;20041;-80
2022/05/07 11:29:53;;;;;;;14.30;11.30;;;;;;;;;;4981666;28;20043;-81
2022/05/07 11:32:20;;;;;;;13.27;10.43;;;;;;;;;;4996845;28;20023;-81
2022/05/07 11:34:45;;;;;;;13.63;9.80;;;;;;;;;;4981600;28;20077;-80
2022/05/07 11:37:13;;;;;;;18.45;11.05;;;;;;;;;;4984141;28;20053;-81
2022/05/07 11:39:46;;;;;;;14.85;10.50;;;;;;;;;;4983078;28;20549;-81
2022/05/07 11:42:11;;;;;;;15.80;10.20;;;;;;;;;;5000074;28;20431;-81
2022/05/07 11:47:22;;;;;;;12.00;9.60;;;;;;;;;;4995767;28;20031;-80
2022/05/07 11:50:02;;;;;;;13.20;10.52;;;;;;;;;;4998827;28;20031;-81
2022/05/07 11:52:28;;;;;;;14.82;12.00;;;;;;;;;;4999140;28;20049;-80
2022/05/07 11:54:53;;;;;;;13.00;10.52;;;;;;;;;;4999767;28;20063;-80
2022/05/07 11:57:29;;;;;;;12.23;10.20;;;;;;;;;;4984950;28;20031;-80
2022/05/07 11:59:56;;;;;;;11.63;9.43;;;;;;;;;;4985019;28;20042;-82
2022/05/07 12:02:21;;;;;;;12.82;10.02;;;;;;;;;;4984380;28;20045;-83
2022/05/07 12:04:57;;;;;;;15.88;10.48;;;;;;;;;;4999525;28;20042;-82
2022/05/07 12:07:22;;;;;;;13.60;10.55;;;;;;;;;;4998439;28;20045;-82
2022/05/07 12:09:48;;;;;;;11.45;8.07;;;;;;;;;;4981837;28;20039;-82
2022/05/07 12:12:13;;;;;;;11.68;9.07;;;;;;;;;;4982616;28;20153;-82
2022/05/07 12:14:39;;;;;;;8.88;6.57;;;;;;;;;;4983368;28;20077;-82
2022/05/07 12:19:48;;;;;;;7.05;6.25;;;;;;;;;;4997369;28;20042;-82
2022/05/07 12:30:25;;;;;;;9.27;5.40;;;;;;;;;;4996465;28;20422;-80
2022/05/07 12:32:54;;;;;;;7.85;5.80;;;;;;;;;;4981866;28;20025;-81
2022/05/07 12:35:19;;;;;;;7.93;6.32;;;;;;;;;;4990214;28;78853;-82
2022/05/07 12:37:45;;;;;;;6.32;4.85;;;;;;;;;;4983089;28;20035;-81
2022/05/07 12:40:12;;;;;;;9.45;5.85;;;;;;;;;;4982583;28;20058;-81
2022/05/07 12:42:38;;;;;;;7.05;6.00;;;;;;;;;;4981702;28;20062;-83
2022/05/07 12:45:04;;;;;;;7.63;6.22;;;;;;;;;;4996728;28;20041;-81
2022/05/07 12:47:29;;;;;;;6.30;5.30;;;;;;;;;;4996315;28;20050;-80
2022/05/07 12:49:55;;;;;;;8.23;5.97;;;;;;;;;;4980860;28;20054;-80
2022/05/07 12:52:23;;;;;;;7.25;6.10;;;;;;;;;;4980239;28;20035;-80
2022/05/07 12:54:49;;;;;;;8.20;6.60;;;;;;;;;;4981422;28;20550;-81
2022/05/07 12:57:15;;;;;;;7.88;6.55;;;;;;;;;;4979775;28;20035;-81
2022/05/07 12:59:41;;;;;;;7.20;5.93;;;;;;;;;;4996407;28;20078;-82
2022/05/07 13:02:06;;;;;;;8.43;6.05;;;;;;;;;;4980103;28;20456;-80
2022/05/07 13:04:32;;;;;;;7.25;4.30;;;;;;;;;;4980703;28;20050;-81
2022/05/07 13:06:58;;;;;;;6.65;4.97;;;;;;;;;;4995526;28;20117;-81
2022/05/07 13:09:23;;;;;;;5.07;4.18;;;;;;;;;;4964725;28;20043;-81
2022/05/07 13:11:48;;;;;;;5.15;4.00;;;;;;;;;;4980435;28;20074;-81
2022/05/07 13:14:14;;;;;;;5.00;4.38;;;;;;;;;;4963827;28;20039;-81
2022/05/07 13:16:40;;;;;;;6.00;4.55;;;;;;;;;;4980660;28;20476;-81
2022/05/07 13:19:05;;;;;;;6.55;4.72;;;;;;;;;;4995684;28;20117;-81
2022/05/07 13:21:31;;;;;;;12.98;6.20;;;;;;;;;;4963936;28;20026;-80
2022/05/07 13:23:58;;;;;;;6.80;5.53;;;;;;;;;;4980144;28;20038;-84
2022/05/07 13:26:24;;;;;;;6.38;5.10;;;;;;;;;;4979161;28;20126;-80
2022/05/07 13:28:49;;;;;;;6.65;5.47;;;;;;;;;;4978613;28;20031;-82
2022/05/07 13:31:15;;;;;;;8.63;5.75;;;;;;;;;;4995463;28;20041;-81
2022/05/07 13:33:40;;;;;;;8.20;6.45;;;;;;;;;;4980902;28;20038;-84
2022/05/07 13:36:06;;;;;;;8.43;6.10;;;;;;;;;;4979750;28;20039;-80
2022/05/07 13:38:31;;;;;;;7.47;6.13;;;;;;;;;;4979176;28;20034;-82
2022/05/07 13:40:57;;;;;;;8.52;6.50;;;;;;;;;;4980715;28;20039;-81
2022/05/07 13:43:23;;;;;;;6.50;5.70;;;;;;;;;;4978741;28;20034;-81
2022/05/07 13:45:48;;;;;;;5.88;4.93;;;;;;;;;;4980552;28;20054;-82
2022/05/07 13:48:13;;;;;;;7.00;5.97;;;;;;;;;;4979345;28;20030;-80
2022/05/07 13:50:39;;;;;;;7.53;5.75;;;;;;;;;;4962824;28;20085;-82
2022/05/07 13:53:06;;;;;;;8.05;6.05;;;;;;;;;;4978841;28;20030;-81
2022/05/07 13:55:32;;;;;;;6.97;5.50;;;;;;;;;;4979676;28;20035;-81
2022/05/07 13:57:57;;;;;;;7.47;5.40;;;;;;;;;;4993676;28;20365;-81
2022/05/07 14:00:23;;;;;;;6.00;4.82;;;;;;;;;;4978959;28;20035;-81
2022/05/07 14:02:48;;;;;;;6.22;5.10;;;;;;;;;;4980034;28;20034;-82
2022/05/07 14:05:15;;;;;;;5.25;4.68;;;;;;;;;;4978153;28;20030;-80
2022/05/07 14:07:40;;;;;;;7.00;5.18;;;;;;;;;;4979090;28;20092;-81
2022/05/07 14:10:06;;;;;;;9.18;4.88;;;;;;;;;;4979119;28;20039;-81
2022/05/07 14:12:32;;;;;;;6.50;4.70;;;;;;;;;;4978697;28;20049;-81
2022/05/07 14:14:57;;;;;;;7.85;5.50;;;;;;;;;;4978455;28;20052;-81
2022/05/07 14:17:23;;;;;;;5.88;4.75;;;;;;;;;;4978367;28;20066;-81
2022/05/07 14:19:53;;;;;;;6.45;4.70;;;;;;;;;;4978295;28;20038;-82
2022/05/07 14:22:19;;;;;;;5.45;4.82;;;;;;;;;;4995750;28;20058;-81
2022/05/07 14:24:44;;;;;;;6.78;4.90;;;;;;;;;;4977355;28;20046;-81
2022/05/07 14:27:10;;;;;;;11.52;4.95;;;;;;;;;;4962068;28;20035;-81
2022/05/07 14:29:38;;;;;;;6.57;4.78;;;;;;;;;;4982523;28;20488;-80
2022/05/07 14:32:04;;;;;;;8.23;5.35;;;;;;;;;;5002138;28;20045;-82
2022/05/07 14:34:30;;;;;;;9.23;4.90;;;;;;;;;;4980966;28;20030;-82
2022/05/07 14:36:56;;;;;;;5.65;4.95;;;;;;;;;;4979504;28;20031;-81
2022/05/07 14:39:22;;;;;;;5.90;4.57;;;;;;;;;;4985226;28;20085;-80
2022/05/07 14:41:48;;;;;;;5.75;5.15;;;;;;;;;;4998576;28;20038;-81
2022/05/07 14:44:13;;;;;;;6.43;5.68;;;;;;;;;;4983485;28;20054;-82
2022/05/07 14:46:39;;;;;;;6.75;5.93;;;;;;;;;;5000250;28;20189;-80
2022/05/07 14:49:05;;;;;;;6.65;5.65;;;;;;;;;;4977439;28;20035;-80
2022/05/07 14:51:31;;;;;;;7.10;5.97;;;;;;;;;;4976612;28;20400;-85
2022/05/07 14:53:56;;;;;;;6.53;5.22;;;;;;;;;;4978235;28;20066;-82
2022/05/07 14:56:22;;;;;;;6.38;5.43;;;;;;;;;;4976907;28;20026;-82
2022/05/07 14:58:47;;;;;;;7.35;5.68;;;;;;;;;;4976417;28;20042;-82
2022/05/07 15:01:14;;;;;;;10.23;5.85;;;;;;;;;;4991838;28;20054;-82
2022/05/07 15:03:39;;;;;;;5.80;5.20;;;;;;;;;;4992269;28;20105;-81